sensor_id;sensor_type;location;lat;lon;timestamp;P1;durP1;ratioP1;P2;durP2;ratioP2
37451;SDS011;23314;51.114;6.900;2022-07-23T00:00:13;44.43;;;30.47;;
37451;SDS011;23314;51.114;6.900;2022-07-23T00:02:39;37.87;;;26.43;;
37451;SDS011;23314;51.114;6.900;2022-07-23T00:05:05;33.17;;;25.67;;
37451;SDS011;23314;51.114;6.900;2022-07-23T00:07:30;49.13;;;33.03;;
37451;SDS011;23314;51.114;6.900;2022-07-23T00:09:56;38.50;;;28.03;;
37451;SDS011;23314;51.114;6.900;2022-07-23T00:12:21;26.90;;;21.90;;
37451;SDS011;23314;51.114;6.900;2022-07-23T00:14:46;44.73;;;31.67;;
37451;SDS011;23314;51.114;6.900;2022-07-23T00:17:12;44.23;;;32.97;;
37451;SDS011;23314;51.114;6.900;2022-07-23T00:19:37;41.70;;;30.77;;
37451;SDS011;23314;51.114;6.900;2022-07-23T00:22:02;45.60;;;33.40;;
37451;SDS011;23314;51.114;6.900;2022-07-23T00:24:28;38.57;;;29.20;;
37451;SDS011;23314;51.114;6.900;2022-07-23T00:26:53;35.47;;;29.10;;
37451;SDS011;23314;51.114;6.900;2022-07-23T00:29:19;38.57;;;29.40;;
37451;SDS011;23314;51.114;6.900;2022-07-23T00:31:44;33.00;;;24.93;;
37451;SDS011;23314;51.114;6.900;2022-07-23T00:34:09;40.67;;;31.17;;
37451;SDS011;23314;51.114;6.900;2022-07-23T00:36:35;32.43;;;24.40;;
37451;SDS011;23314;51.114;6.900;2022-07-23T00:39:00;43.80;;;29.47;;
37451;SDS011;23314;51.114;6.900;2022-07-23T00:41:25;35.77;;;26.87;;
37451;SDS011;23314;51.114;6.900;2022-07-23T00:43:51;35.40;;;26.30;;
37451;SDS011;23314;51.114;6.900;2022-07-23T00:46:19;33.03;;;25.87;;
37451;SDS011;23314;51.114;6.900;2022-07-23T00:48:45;29.13;;;23.17;;
37451;SDS011;23314;51.114;6.900;2022-07-23T00:51:11;28.53;;;23.53;;
37451;SDS011;23314;51.114;6.900;2022-07-23T00:53:36;31.83;;;24.07;;
37451;SDS011;23314;51.114;6.900;2022-07-23T00:56:01;28.27;;;21.50;;
37451;SDS011;23314;51.114;6.900;2022-07-23T00:58:27;30.37;;;23.97;;
37451;SDS011;23314;51.114;6.900;2022-07-23T01:00:52;29.83;;;24.57;;
37451;SDS011;23314;51.114;6.900;2022-07-23T01:03:18;35.10;;;25.77;;
37451;SDS011;23314;51.114;6.900;2022-07-23T01:05:43;40.17;;;28.50;;
37451;SDS011;23314;51.114;6.900;2022-07-23T01:08:09;31.67;;;24.70;;
37451;SDS011;23314;51.114;6.900;2022-07-23T01:10:35;29.03;;;24.40;;
37451;SDS011;23314;51.114;6.900;2022-07-23T01:13:08;34.33;;;26.67;;
37451;SDS011;23314;51.114;6.900;2022-07-23T01:15:35;26.27;;;22.17;;
37451;SDS011;23314;51.114;6.900;2022-07-23T01:18:02;28.20;;;23.60;;
37451;SDS011;23314;51.114;6.900;2022-07-23T01:20:29;36.77;;;26.97;;
37451;SDS011;23314;51.114;6.900;2022-07-23T01:22:54;34.33;;;24.23;;
37451;SDS011;23314;51.114;6.900;2022-07-23T01:25:20;34.73;;;26.97;;
37451;SDS011;23314;51.114;6.900;2022-07-23T01:27:48;28.10;;;23.03;;
37451;SDS011;23314;51.114;6.900;2022-07-23T01:30:14;35.53;;;27.00;;
37451;SDS011;23314;51.114;6.900;2022-07-23T01:32:40;36.43;;;27.77;;
37451;SDS011;23314;51.114;6.900;2022-07-23T01:35:06;33.47;;;26.53;;
37451;SDS011;23314;51.114;6.900;2022-07-23T01:37:32;35.13;;;26.17;;
37451;SDS011;23314;51.114;6.900;2022-07-23T01:39:57;33.00;;;25.50;;
37451;SDS011;23314;51.114;6.900;2022-07-23T01:42:23;36.47;;;27.40;;
37451;SDS011;23314;51.114;6.900;2022-07-23T01:44:48;40.57;;;28.20;;
37451;SDS011;23314;51.114;6.900;2022-07-23T01:47:14;42.40;;;29.37;;
37451;SDS011;23314;51.114;6.900;2022-07-23T01:49:39;40.57;;;28.00;;
37451;SDS011;23314;51.114;6.900;2022-07-23T01:52:04;44.97;;;30.90;;
37451;SDS011;23314;51.114;6.900;2022-07-23T01:54:34;38.33;;;27.33;;
37451;SDS011;23314;51.114;6.900;2022-07-23T01:57:00;42.60;;;30.20;;
37451;SDS011;23314;51.114;6.900;2022-07-23T01:59:26;39.97;;;28.20;;
37451;SDS011;23314;51.114;6.900;2022-07-23T02:01:51;44.17;;;30.53;;
37451;SDS011;23314;51.114;6.900;2022-07-23T02:04:17;47.67;;;32.10;;
37451;SDS011;23314;51.114;6.900;2022-07-23T02:06:43;43.50;;;30.47;;
37451;SDS011;23314;51.114;6.900;2022-07-23T02:09:09;45.20;;;30.83;;
37451;SDS011;23314;51.114;6.900;2022-07-23T02:11:34;46.33;;;31.77;;
37451;SDS011;23314;51.114;6.900;2022-07-23T02:13:59;42.83;;;31.10;;
37451;SDS011;23314;51.114;6.900;2022-07-23T02:16:25;47.70;;;31.87;;
37451;SDS011;23314;51.114;6.900;2022-07-23T02:18:50;43.93;;;30.03;;
37451;SDS011;23314;51.114;6.900;2022-07-23T02:21:15;38.27;;;28.23;;
37451;SDS011;23314;51.114;6.900;2022-07-23T02:23:41;45.67;;;31.23;;
37451;SDS011;23314;51.114;6.900;2022-07-23T02:26:06;41.13;;;30.17;;
37451;SDS011;23314;51.114;6.900;2022-07-23T02:28:31;46.73;;;30.70;;
37451;SDS011;23314;51.114;6.900;2022-07-23T02:30:57;50.13;;;32.43;;
37451;SDS011;23314;51.114;6.900;2022-07-23T02:33:22;41.63;;;29.87;;
37451;SDS011;23314;51.114;6.900;2022-07-23T02:35:47;44.13;;;31.23;;
37451;SDS011;23314;51.114;6.900;2022-07-23T02:38:13;50.80;;;33.67;;
37451;SDS011;23314;51.114;6.900;2022-07-23T02:40:38;47.93;;;33.90;;
37451;SDS011;23314;51.114;6.900;2022-07-23T02:43:03;52.57;;;35.23;;
37451;SDS011;23314;51.114;6.900;2022-07-23T02:45:29;47.07;;;33.03;;
37451;SDS011;23314;51.114;6.900;2022-07-23T02:47:54;51.07;;;33.80;;
37451;SDS011;23314;51.114;6.900;2022-07-23T02:50:20;52.57;;;34.00;;
37451;SDS011;23314;51.114;6.900;2022-07-23T02:52:45;54.10;;;34.73;;
37451;SDS011;23314;51.114;6.900;2022-07-23T02:55:10;63.57;;;37.03;;
37451;SDS011;23314;51.114;6.900;2022-07-23T02:57:36;64.00;;;39.03;;
37451;SDS011;23314;51.114;6.900;2022-07-23T03:00:02;51.77;;;33.67;;
37451;SDS011;23314;51.114;6.900;2022-07-23T03:02:29;53.30;;;35.23;;
37451;SDS011;23314;51.114;6.900;2022-07-23T03:04:55;59.40;;;37.17;;
37451;SDS011;23314;51.114;6.900;2022-07-23T03:07:20;61.17;;;36.13;;
37451;SDS011;23314;51.114;6.900;2022-07-23T03:09:45;54.07;;;36.27;;
37451;SDS011;23314;51.114;6.900;2022-07-23T03:12:11;55.60;;;34.93;;
37451;SDS011;23314;51.114;6.900;2022-07-23T03:14:37;56.37;;;36.63;;
37451;SDS011;23314;51.114;6.900;2022-07-23T03:17:02;63.83;;;38.77;;
37451;SDS011;23314;51.114;6.900;2022-07-23T03:19:27;63.87;;;38.23;;
37451;SDS011;23314;51.114;6.900;2022-07-23T03:21:53;66.93;;;40.07;;
37451;SDS011;23314;51.114;6.900;2022-07-23T03:24:18;80.63;;;43.23;;
37451;SDS011;23314;51.114;6.900;2022-07-23T03:26:44;60.30;;;39.17;;
37451;SDS011;23314;51.114;6.900;2022-07-23T03:29:10;65.57;;;39.57;;
37451;SDS011;23314;51.114;6.900;2022-07-23T03:31:36;76.40;;;40.10;;
37451;SDS011;23314;51.114;6.900;2022-07-23T03:34:01;76.47;;;43.80;;
37451;SDS011;23314;51.114;6.900;2022-07-23T03:36:27;76.13;;;41.67;;
37451;SDS011;23314;51.114;6.900;2022-07-23T03:38:52;80.13;;;42.93;;
37451;SDS011;23314;51.114;6.900;2022-07-23T03:41:19;83.57;;;44.83;;
37451;SDS011;23314;51.114;6.900;2022-07-23T03:43:45;85.03;;;45.67;;
37451;SDS011;23314;51.114;6.900;2022-07-23T03:46:10;81.27;;;44.33;;
37451;SDS011;23314;51.114;6.900;2022-07-23T03:48:36;93.90;;;47.03;;
37451;SDS011;23314;51.114;6.900;2022-07-23T03:51:01;84.50;;;47.23;;
37451;SDS011;23314;51.114;6.900;2022-07-23T03:53:26;81.97;;;45.40;;
37451;SDS011;23314;51.114;6.900;2022-07-23T03:55:52;84.23;;;44.77;;
37451;SDS011;23314;51.114;6.900;2022-07-23T03:58:17;72.57;;;42.33;;
37451;SDS011;23314;51.114;6.900;2022-07-23T04:00:42;76.13;;;43.73;;
37451;SDS011;23314;51.114;6.900;2022-07-23T04:03:08;68.33;;;38.63;;
37451;SDS011;23314;51.114;6.900;2022-07-23T04:05:33;76.83;;;44.53;;
37451;SDS011;23314;51.114;6.900;2022-07-23T04:07:59;76.93;;;44.00;;
37451;SDS011;23314;51.114;6.900;2022-07-23T04:10:24;88.27;;;45.40;;
37451;SDS011;23314;51.114;6.900;2022-07-23T04:12:49;105.80;;;49.33;;
37451;SDS011;23314;51.114;6.900;2022-07-23T04:15:14;70.70;;;40.37;;
37451;SDS011;23314;51.114;6.900;2022-07-23T04:17:40;88.37;;;45.80;;
37451;SDS011;23314;51.114;6.900;2022-07-23T04:20:05;77.93;;;43.90;;
37451;SDS011;23314;51.114;6.900;2022-07-23T04:22:31;87.43;;;45.90;;
37451;SDS011;23314;51.114;6.900;2022-07-23T04:24:56;64.67;;;37.37;;
37451;SDS011;23314;51.114;6.900;2022-07-23T04:27:21;80.03;;;45.00;;
37451;SDS011;23314;51.114;6.900;2022-07-23T04:29:47;82.43;;;44.73;;
37451;SDS011;23314;51.114;6.900;2022-07-23T04:32:12;88.57;;;46.73;;
37451;SDS011;23314;51.114;6.900;2022-07-23T04:34:37;68.87;;;39.40;;
37451;SDS011;23314;51.114;6.900;2022-07-23T04:37:03;69.10;;;39.80;;
37451;SDS011;23314;51.114;6.900;2022-07-23T04:39:28;72.77;;;41.57;;
37451;SDS011;23314;51.114;6.900;2022-07-23T04:41:53;70.13;;;41.00;;
37451;SDS011;23314;51.114;6.900;2022-07-23T04:44:19;62.60;;;38.50;;
37451;SDS011;23314;51.114;6.900;2022-07-23T04:46:44;58.03;;;36.00;;
37451;SDS011;23314;51.114;6.900;2022-07-23T04:49:10;64.97;;;39.13;;
37451;SDS011;23314;51.114;6.900;2022-07-23T04:51:35;58.00;;;36.20;;
37451;SDS011;23314;51.114;6.900;2022-07-23T04:54:01;62.17;;;36.43;;
37451;SDS011;23314;51.114;6.900;2022-07-23T04:56:26;60.20;;;36.07;;
37451;SDS011;23314;51.114;6.900;2022-07-23T04:58:52;54.23;;;34.80;;
37451;SDS011;23314;51.114;6.900;2022-07-23T05:01:17;48.67;;;32.53;;
37451;SDS011;23314;51.114;6.900;2022-07-23T05:03:43;53.30;;;33.90;;
37451;SDS011;23314;51.114;6.900;2022-07-23T05:06:08;58.17;;;33.43;;
37451;SDS011;23314;51.114;6.900;2022-07-23T05:08:34;31.30;;;21.97;;
37451;SDS011;23314;51.114;6.900;2022-07-23T05:10:59;47.90;;;30.17;;
37451;SDS011;23314;51.114;6.900;2022-07-23T05:13:24;49.23;;;30.10;;
37451;SDS011;23314;51.114;6.900;2022-07-23T05:15:50;43.73;;;29.90;;
37451;SDS011;23314;51.114;6.900;2022-07-23T05:18:16;43.67;;;30.57;;
37451;SDS011;23314;51.114;6.900;2022-07-23T05:20:41;38.00;;;26.37;;
37451;SDS011;23314;51.114;6.900;2022-07-23T05:23:07;40.83;;;28.07;;
37451;SDS011;23314;51.114;6.900;2022-07-23T05:25:32;44.13;;;29.20;;
37451;SDS011;23314;51.114;6.900;2022-07-23T05:27:58;43.17;;;29.33;;
37451;SDS011;23314;51.114;6.900;2022-07-23T05:30:23;46.97;;;30.70;;
37451;SDS011;23314;51.114;6.900;2022-07-23T05:32:48;49.73;;;29.73;;
37451;SDS011;23314;51.114;6.900;2022-07-23T05:35:13;37.30;;;24.70;;
37451;SDS011;23314;51.114;6.900;2022-07-23T05:37:39;42.67;;;27.57;;
37451;SDS011;23314;51.114;6.900;2022-07-23T05:40:05;38.67;;;26.87;;
37451;SDS011;23314;51.114;6.900;2022-07-23T05:42:41;43.87;;;28.97;;
37451;SDS011;23314;51.114;6.900;2022-07-23T05:45:10;40.60;;;27.23;;
37451;SDS011;23314;51.114;6.900;2022-07-23T05:47:39;39.37;;;26.33;;
37451;SDS011;23314;51.114;6.900;2022-07-23T05:50:14;38.40;;;26.10;;
37451;SDS011;23314;51.114;6.900;2022-07-23T05:52:40;35.43;;;26.17;;
37451;SDS011;23314;51.114;6.900;2022-07-23T05:55:06;32.10;;;22.90;;
37451;SDS011;23314;51.114;6.900;2022-07-23T05:57:32;34.77;;;22.63;;
37451;SDS011;23314;51.114;6.900;2022-07-23T05:59:58;30.10;;;21.73;;
37451;SDS011;23314;51.114;6.900;2022-07-23T06:02:23;28.23;;;22.47;;
37451;SDS011;23314;51.114;6.900;2022-07-23T06:04:50;34.33;;;23.63;;
37451;SDS011;23314;51.114;6.900;2022-07-23T06:07:15;30.60;;;22.73;;
37451;SDS011;23314;51.114;6.900;2022-07-23T06:09:40;38.77;;;24.43;;
37451;SDS011;23314;51.114;6.900;2022-07-23T06:12:06;30.67;;;22.43;;
37451;SDS011;23314;51.114;6.900;2022-07-23T06:14:31;36.37;;;24.47;;
37451;SDS011;23314;51.114;6.900;2022-07-23T06:19:24;26.47;;;21.43;;
37451;SDS011;23314;51.114;6.900;2022-07-23T06:21:50;30.33;;;23.20;;
37451;SDS011;23314;51.114;6.900;2022-07-23T06:24:15;32.90;;;22.33;;
37451;SDS011;23314;51.114;6.900;2022-07-23T06:26:41;28.20;;;22.73;;
37451;SDS011;23314;51.114;6.900;2022-07-23T06:29:06;30.07;;;23.03;;
37451;SDS011;23314;51.114;6.900;2022-07-23T06:31:32;27.87;;;21.07;;
37451;SDS011;23314;51.114;6.900;2022-07-23T06:33:58;27.07;;;19.93;;
37451;SDS011;23314;51.114;6.900;2022-07-23T06:36:23;29.33;;;21.87;;
37451;SDS011;23314;51.114;6.900;2022-07-23T06:38:49;31.73;;;23.00;;
37451;SDS011;23314;51.114;6.900;2022-07-23T06:41:14;27.47;;;20.83;;
37451;SDS011;23314;51.114;6.900;2022-07-23T06:43:39;30.43;;;22.37;;
37451;SDS011;23314;51.114;6.900;2022-07-23T06:46:04;26.10;;;20.53;;
37451;SDS011;23314;51.114;6.900;2022-07-23T06:48:30;29.13;;;22.37;;
37451;SDS011;23314;51.114;6.900;2022-07-23T06:50:55;24.70;;;19.63;;
37451;SDS011;23314;51.114;6.900;2022-07-23T06:53:20;24.57;;;19.93;;
37451;SDS011;23314;51.114;6.900;2022-07-23T06:55:46;25.77;;;20.23;;
37451;SDS011;23314;51.114;6.900;2022-07-23T06:58:11;25.33;;;19.27;;
37451;SDS011;23314;51.114;6.900;2022-07-23T07:00:38;26.23;;;19.83;;
37451;SDS011;23314;51.114;6.900;2022-07-23T07:03:04;23.33;;;20.30;;
37451;SDS011;23314;51.114;6.900;2022-07-23T07:05:29;24.83;;;18.50;;
37451;SDS011;23314;51.114;6.900;2022-07-23T07:07:55;25.90;;;18.23;;
37451;SDS011;23314;51.114;6.900;2022-07-23T07:10:20;21.57;;;17.80;;
37451;SDS011;23314;51.114;6.900;2022-07-23T07:12:46;23.83;;;18.00;;
37451;SDS011;23314;51.114;6.900;2022-07-23T07:15:11;21.93;;;16.73;;
37451;SDS011;23314;51.114;6.900;2022-07-23T07:17:37;20.23;;;17.60;;
37451;SDS011;23314;51.114;6.900;2022-07-23T07:20:02;19.00;;;16.67;;
37451;SDS011;23314;51.114;6.900;2022-07-23T07:22:28;20.77;;;16.15;;
37451;SDS011;23314;51.114;6.900;2022-07-23T07:24:53;19.20;;;15.68;;
37451;SDS011;23314;51.114;6.900;2022-07-23T07:27:19;17.15;;;15.35;;
37451;SDS011;23314;51.114;6.900;2022-07-23T07:29:44;22.17;;;17.13;;
37451;SDS011;23314;51.114;6.900;2022-07-23T07:32:09;15.18;;;12.80;;
37451;SDS011;23314;51.114;6.900;2022-07-23T07:34:35;18.67;;;15.70;;
37451;SDS011;23314;51.114;6.900;2022-07-23T07:37:00;23.00;;;17.95;;
37451;SDS011;23314;51.114;6.900;2022-07-23T07:39:25;17.85;;;15.48;;
37451;SDS011;23314;51.114;6.900;2022-07-23T07:41:51;16.60;;;14.50;;
37451;SDS011;23314;51.114;6.900;2022-07-23T07:44:16;16.45;;;13.90;;
37451;SDS011;23314;51.114;6.900;2022-07-23T07:46:41;18.17;;;14.07;;
37451;SDS011;23314;51.114;6.900;2022-07-23T07:49:07;14.70;;;13.32;;
37451;SDS011;23314;51.114;6.900;2022-07-23T07:51:32;17.80;;;14.63;;
37451;SDS011;23314;51.114;6.900;2022-07-23T07:53:57;16.25;;;12.43;;
37451;SDS011;23314;51.114;6.900;2022-07-23T07:56:23;19.77;;;16.70;;
37451;SDS011;23314;51.114;6.900;2022-07-23T07:58:48;20.10;;;15.88;;
37451;SDS011;23314;51.114;6.900;2022-07-23T08:01:13;18.85;;;15.90;;
37451;SDS011;23314;51.114;6.900;2022-07-23T08:03:39;20.17;;;15.40;;
37451;SDS011;23314;51.114;6.900;2022-07-23T08:06:04;20.92;;;17.50;;
37451;SDS011;23314;51.114;6.900;2022-07-23T08:08:29;20.67;;;17.90;;
37451;SDS011;23314;51.114;6.900;2022-07-23T08:10:55;25.50;;;19.70;;
37451;SDS011;23314;51.114;6.900;2022-07-23T08:13:20;22.33;;;19.50;;
37451;SDS011;23314;51.114;6.900;2022-07-23T08:15:45;24.05;;;20.00;;
37451;SDS011;23314;51.114;6.900;2022-07-23T08:18:11;27.90;;;20.63;;
37451;SDS011;23314;51.114;6.900;2022-07-23T08:20:36;23.67;;;18.85;;
37451;SDS011;23314;51.114;6.900;2022-07-23T08:23:05;27.08;;;19.95;;
37451;SDS011;23314;51.114;6.900;2022-07-23T08:25:33;21.60;;;17.23;;
37451;SDS011;23314;51.114;6.900;2022-07-23T08:28:01;23.15;;;17.58;;
37451;SDS011;23314;51.114;6.900;2022-07-23T08:30:28;21.30;;;18.13;;
37451;SDS011;23314;51.114;6.900;2022-07-23T08:32:55;22.30;;;19.70;;
37451;SDS011;23314;51.114;6.900;2022-07-23T08:35:32;23.65;;;19.27;;
37451;SDS011;23314;51.114;6.900;2022-07-23T08:37:59;21.90;;;17.65;;
37451;SDS011;23314;51.114;6.900;2022-07-23T08:40:26;23.45;;;18.77;;
37451;SDS011;23314;51.114;6.900;2022-07-23T08:42:52;19.40;;;16.52;;
37451;SDS011;23314;51.114;6.900;2022-07-23T08:45:19;22.75;;;17.95;;
37451;SDS011;23314;51.114;6.900;2022-07-23T08:47:56;21.17;;;17.67;;
37451;SDS011;23314;51.114;6.900;2022-07-23T08:50:25;21.10;;;18.20;;
37451;SDS011;23314;51.114;6.900;2022-07-23T08:52:51;20.90;;;17.70;;
37451;SDS011;23314;51.114;6.900;2022-07-23T08:55:18;21.85;;;19.52;;
37451;SDS011;23314;51.114;6.900;2022-07-23T08:57:47;21.73;;;19.45;;
37451;SDS011;23314;51.114;6.900;2022-07-23T09:00:13;17.65;;;15.75;;
37451;SDS011;23314;51.114;6.900;2022-07-23T09:02:42;22.80;;;18.23;;
37451;SDS011;23314;51.114;6.900;2022-07-23T09:05:09;23.63;;;20.83;;
37451;SDS011;23314;51.114;6.900;2022-07-23T09:07:36;24.75;;;21.13;;
37451;SDS011;23314;51.114;6.900;2022-07-23T09:10:09;21.67;;;18.42;;
37451;SDS011;23314;51.114;6.900;2022-07-23T09:12:36;22.48;;;19.75;;
37451;SDS011;23314;51.114;6.900;2022-07-23T09:15:03;22.65;;;18.73;;
37451;SDS011;23314;51.114;6.900;2022-07-23T09:17:39;24.55;;;20.23;;
37451;SDS011;23314;51.114;6.900;2022-07-23T09:20:09;24.30;;;20.27;;
37451;SDS011;23314;51.114;6.900;2022-07-23T09:22:36;21.88;;;19.55;;
37451;SDS011;23314;51.114;6.900;2022-07-23T09:25:22;22.48;;;19.92;;
37451;SDS011;23314;51.114;6.900;2022-07-23T09:27:48;15.45;;;13.25;;
37451;SDS011;23314;51.114;6.900;2022-07-23T09:30:17;19.58;;;15.60;;
37451;SDS011;23314;51.114;6.900;2022-07-23T09:32:43;18.75;;;16.80;;
37451;SDS011;23314;51.114;6.900;2022-07-23T09:35:08;22.60;;;18.52;;
37451;SDS011;23314;51.114;6.900;2022-07-23T09:37:34;20.23;;;18.27;;
37451;SDS011;23314;51.114;6.900;2022-07-23T09:40:03;21.35;;;19.33;;
37451;SDS011;23314;51.114;6.900;2022-07-23T09:42:31;19.73;;;17.88;;
37451;SDS011;23314;51.114;6.900;2022-07-23T09:44:57;20.20;;;18.38;;
37451;SDS011;23314;51.114;6.900;2022-07-23T09:47:24;19.63;;;17.50;;
37451;SDS011;23314;51.114;6.900;2022-07-23T09:49:58;18.02;;;16.20;;
37451;SDS011;23314;51.114;6.900;2022-07-23T09:52:30;19.85;;;17.77;;
37451;SDS011;23314;51.114;6.900;2022-07-23T09:54:58;20.05;;;18.13;;
37451;SDS011;23314;51.114;6.900;2022-07-23T09:57:25;16.70;;;15.07;;
37451;SDS011;23314;51.114;6.900;2022-07-23T09:59:52;21.38;;;19.15;;
37451;SDS011;23314;51.114;6.900;2022-07-23T10:02:17;20.05;;;17.52;;
37451;SDS011;23314;51.114;6.900;2022-07-23T10:04:43;20.23;;;18.25;;
37451;SDS011;23314;51.114;6.900;2022-07-23T10:07:09;21.65;;;19.58;;
37451;SDS011;23314;51.114;6.900;2022-07-23T10:09:36;22.67;;;20.38;;
37451;SDS011;23314;51.114;6.900;2022-07-23T10:12:05;16.45;;;14.95;;
37451;SDS011;23314;51.114;6.900;2022-07-23T10:14:47;21.63;;;19.42;;
37451;SDS011;23314;51.114;6.900;2022-07-23T10:17:13;18.75;;;16.92;;
37451;SDS011;23314;51.114;6.900;2022-07-23T10:19:39;16.45;;;14.95;;
37451;SDS011;23314;51.114;6.900;2022-07-23T10:30:31;16.55;;;14.75;;
37451;SDS011;23314;51.114;6.900;2022-07-23T10:33:20;16.67;;;15.18;;
37451;SDS011;23314;51.114;6.900;2022-07-23T10:36:03;17.00;;;15.60;;
37451;SDS011;23314;51.114;6.900;2022-07-23T10:41:07;16.83;;;14.07;;
37451;SDS011;23314;51.114;6.900;2022-07-23T10:43:32;17.52;;;15.90;;
37451;SDS011;23314;51.114;6.900;2022-07-23T10:49:25;13.48;;;12.27;;
37451;SDS011;23314;51.114;6.900;2022-07-23T10:54:48;16.42;;;14.68;;
37451;SDS011;23314;51.114;6.900;2022-07-23T10:57:47;14.05;;;12.80;;
37451;SDS011;23314;51.114;6.900;2022-07-23T11:00:14;17.20;;;14.18;;
37451;SDS011;23314;51.114;6.900;2022-07-23T11:02:43;15.55;;;13.93;;
37451;SDS011;23314;51.114;6.900;2022-07-23T11:05:13;18.73;;;13.38;;
37451;SDS011;23314;51.114;6.900;2022-07-23T11:10:51;12.82;;;11.57;;
37451;SDS011;23314;51.114;6.900;2022-07-23T11:13:35;13.73;;;12.32;;
37451;SDS011;23314;51.114;6.900;2022-07-23T11:19:08;12.68;;;11.45;;
37451;SDS011;23314;51.114;6.900;2022-07-23T11:26:56;11.10;;;10.00;;
37451;SDS011;23314;51.114;6.900;2022-07-23T11:34:33;10.88;;;9.80;;
37451;SDS011;23314;51.114;6.900;2022-07-23T11:37:07;12.40;;;9.25;;
37451;SDS011;23314;51.114;6.900;2022-07-23T11:39:34;10.60;;;9.63;;
37451;SDS011;23314;51.114;6.900;2022-07-23T11:42:00;10.63;;;9.63;;
37451;SDS011;23314;51.114;6.900;2022-07-23T11:44:31;9.70;;;8.75;;
37451;SDS011;23314;51.114;6.900;2022-07-23T11:47:01;10.23;;;8.23;;
37451;SDS011;23314;51.114;6.900;2022-07-23T11:49:28;9.15;;;7.70;;
37451;SDS011;23314;51.114;6.900;2022-07-23T11:52:08;10.07;;;8.07;;
37451;SDS011;23314;51.114;6.900;2022-07-23T11:54:46;9.05;;;7.20;;
37451;SDS011;23314;51.114;6.900;2022-07-23T11:57:13;9.25;;;7.72;;
37451;SDS011;23314;51.114;6.900;2022-07-23T11:59:39;9.23;;;7.45;;
37451;SDS011;23314;51.114;6.900;2022-07-23T12:02:05;9.88;;;6.72;;
37451;SDS011;23314;51.114;6.900;2022-07-23T12:07:04;6.13;;;5.53;;
37451;SDS011;23314;51.114;6.900;2022-07-23T12:09:46;9.75;;;6.22;;
37451;SDS011;23314;51.114;6.900;2022-07-23T12:12:12;6.60;;;5.95;;
37451;SDS011;23314;51.114;6.900;2022-07-23T12:14:46;5.72;;;5.22;;
37451;SDS011;23314;51.114;6.900;2022-07-23T12:17:12;5.53;;;5.13;;
37451;SDS011;23314;51.114;6.900;2022-07-23T12:19:38;6.72;;;5.15;;
37451;SDS011;23314;51.114;6.900;2022-07-23T12:22:03;7.97;;;5.43;;
37451;SDS011;23314;51.114;6.900;2022-07-23T12:24:29;8.48;;;5.40;;
37451;SDS011;23314;51.114;6.900;2022-07-23T12:27:07;6.80;;;6.20;;
37451;SDS011;23314;51.114;6.900;2022-07-23T12:29:34;7.32;;;5.10;;
37451;SDS011;23314;51.114;6.900;2022-07-23T12:32:00;5.13;;;3.97;;
37451;SDS011;23314;51.114;6.900;2022-07-23T12:34:25;5.97;;;4.57;;
37451;SDS011;23314;51.114;6.900;2022-07-23T12:36:51;8.10;;;5.13;;
37451;SDS011;23314;51.114;6.900;2022-07-23T12:39:29;4.65;;;4.20;;
37451;SDS011;23314;51.114;6.900;2022-07-23T12:41:55;4.40;;;4.00;;
37451;SDS011;23314;51.114;6.900;2022-07-23T12:44:21;8.40;;;5.25;;
37451;SDS011;23314;51.114;6.900;2022-07-23T12:46:52;4.70;;;4.30;;
37451;SDS011;23314;51.114;6.900;2022-07-23T12:49:27;4.28;;;3.85;;
37451;SDS011;23314;51.114;6.900;2022-07-23T12:51:53;4.40;;;3.63;;
37451;SDS011;23314;51.114;6.900;2022-07-23T12:54:19;4.75;;;3.30;;
37451;SDS011;23314;51.114;6.900;2022-07-23T12:56:53;3.30;;;3.00;;
37451;SDS011;23314;51.114;6.900;2022-07-23T12:59:18;4.40;;;4.00;;
37451;SDS011;23314;51.114;6.900;2022-07-23T13:01:44;5.07;;;3.72;;
37451;SDS011;23314;51.114;6.900;2022-07-23T13:04:19;4.30;;;3.70;;
37451;SDS011;23314;51.114;6.900;2022-07-23T13:09:16;9.18;;;4.60;;
37451;SDS011;23314;51.114;6.900;2022-07-23T13:11:43;9.15;;;4.57;;
37451;SDS011;23314;51.114;6.900;2022-07-23T13:14:10;4.55;;;3.78;;
37451;SDS011;23314;51.114;6.900;2022-07-23T13:16:36;3.90;;;3.50;;
37451;SDS011;23314;51.114;6.900;2022-07-23T13:19:02;3.75;;;3.15;;
37451;SDS011;23314;51.114;6.900;2022-07-23T13:21:28;4.10;;;3.70;;
37451;SDS011;23314;51.114;6.900;2022-07-23T13:23:54;4.45;;;3.25;;
37451;SDS011;23314;51.114;6.900;2022-07-23T13:26:20;3.33;;;2.65;;
37451;SDS011;23314;51.114;6.900;2022-07-23T13:28:45;4.80;;;3.45;;
37451;SDS011;23314;51.114;6.900;2022-07-23T13:31:11;3.97;;;3.47;;
37451;SDS011;23314;51.114;6.900;2022-07-23T13:33:37;7.47;;;3.50;;
37451;SDS011;23314;51.114;6.900;2022-07-23T13:36:03;5.68;;;3.45;;
37451;SDS011;23314;51.114;6.900;2022-07-23T13:38:29;3.78;;;3.10;;
37451;SDS011;23314;51.114;6.900;2022-07-23T13:40:54;3.80;;;3.40;;
37451;SDS011;23314;51.114;6.900;2022-07-23T13:43:20;5.38;;;3.50;;
37451;SDS011;23314;51.114;6.900;2022-07-23T13:45:48;3.97;;;3.22;;
37451;SDS011;23314;51.114;6.900;2022-07-23T13:48:14;3.13;;;2.80;;
37451;SDS011;23314;51.114;6.900;2022-07-23T13:50:41;3.90;;;3.60;;
37451;SDS011;23314;51.114;6.900;2022-07-23T13:53:08;3.10;;;2.80;;
37451;SDS011;23314;51.114;6.900;2022-07-23T13:55:36;3.95;;;2.38;;
37451;SDS011;23314;51.114;6.900;2022-07-23T13:58:02;2.88;;;2.45;;
37451;SDS011;23314;51.114;6.900;2022-07-23T14:00:29;3.28;;;2.97;;
37451;SDS011;23314;51.114;6.900;2022-07-23T14:02:55;3.83;;;2.80;;
37451;SDS011;23314;51.114;6.900;2022-07-23T14:05:21;3.85;;;2.67;;
37451;SDS011;23314;51.114;6.900;2022-07-23T14:07:47;2.78;;;2.47;;
37451;SDS011;23314;51.114;6.900;2022-07-23T14:10:15;3.78;;;2.70;;
37451;SDS011;23314;51.114;6.900;2022-07-23T14:12:41;3.25;;;2.85;;
37451;SDS011;23314;51.114;6.900;2022-07-23T14:15:07;3.15;;;2.85;;
37451;SDS011;23314;51.114;6.900;2022-07-23T14:17:33;2.53;;;2.42;;
37451;SDS011;23314;51.114;6.900;2022-07-23T14:20:01;3.85;;;2.70;;
37451;SDS011;23314;51.114;6.900;2022-07-23T14:22:26;3.03;;;2.65;;
37451;SDS011;23314;51.114;6.900;2022-07-23T14:24:52;2.80;;;2.50;;
37451;SDS011;23314;51.114;6.900;2022-07-23T14:27:17;2.92;;;2.50;;
37451;SDS011;23314;51.114;6.900;2022-07-23T14:29:42;2.83;;;2.55;;
37451;SDS011;23314;51.114;6.900;2022-07-23T14:32:08;4.45;;;2.65;;
37451;SDS011;23314;51.114;6.900;2022-07-23T14:34:34;2.75;;;2.55;;
37451;SDS011;23314;51.114;6.900;2022-07-23T14:37:00;2.83;;;2.58;;
37451;SDS011;23314;51.114;6.900;2022-07-23T14:39:26;3.00;;;2.67;;
37451;SDS011;23314;51.114;6.900;2022-07-23T14:41:51;2.85;;;2.63;;
37451;SDS011;23314;51.114;6.900;2022-07-23T14:44:17;2.70;;;2.53;;
37451;SDS011;23314;51.114;6.900;2022-07-23T14:46:42;2.80;;;2.60;;
37451;SDS011;23314;51.114;6.900;2022-07-23T14:49:08;3.53;;;2.60;;
37451;SDS011;23314;51.114;6.900;2022-07-23T14:51:33;2.75;;;2.50;;
37451;SDS011;23314;51.114;6.900;2022-07-23T14:53:58;3.28;;;2.97;;
37451;SDS011;23314;51.114;6.900;2022-07-23T14:56:24;3.38;;;2.55;;
37451;SDS011;23314;51.114;6.900;2022-07-23T14:58:49;2.72;;;2.53;;
37451;SDS011;23314;51.114;6.900;2022-07-23T15:01:15;2.70;;;2.50;;
37451;SDS011;23314;51.114;6.900;2022-07-23T15:03:40;3.17;;;2.60;;
37451;SDS011;23314;51.114;6.900;2022-07-23T15:06:05;3.42;;;2.33;;